Time;durP1;ratioP1;P1;durP2;ratioP2;P2;SDS_P1;SDS_P2;PMS_P1;PMS_P2;Temp;Humidity;BMP_temperature;BMP_pressure;BME280_temperature;BME280_humidity;BME280_pressure;Samples;Min_cycle;Max_cycle;Signal;HPM_P1;HPM_P2
2023/01/13 00:01:07;;;;;;;1.47;1.37;;;;;;;10.31;100.00;100006.44;5030130;28;20761;-72
2023/01/13 00:03:33;;;;;;;1.90;1.37;;;;;;;10.31;100.00;100012.44;5031409;28;20206;-72
2023/01/13 00:05:59;;;;;;;1.93;1.73;;;;;;;10.32;100.00;100008.19;5027884;28;20222;-72
2023/01/13 00:08:24;;;;;;;1.50;1.40;;;;;;;10.33;100.00;100013.28;5033944;28;20201;-72
2023/01/13 00:10:50;;;;;;;1.67;1.57;;;;;;;10.34;100.00;99998.78;5027904;28;20194;-72
2023/01/13 00:13:15;;;;;;;1.83;1.47;;;;;;;10.34;100.00;99994.53;5026911;28;20662;-71
2023/01/13 00:15:41;;;;;;;1.70;1.60;;;;;;;10.37;100.00;99991.97;5009302;28;20225;-72
2023/01/13 00:18:07;;;;;;;1.73;1.33;;;;;;;10.39;100.00;99995.44;5032222;28;20546;-71
2023/01/13 00:20:32;;;;;;;1.27;1.17;;;;;;;10.39;100.00;99984.31;5029730;28;20245;-71
2023/01/13 00:22:58;;;;;;;2.17;1.10;;;;;;;10.41;100.00;99998.00;5027803;28;20281;-71
2023/01/13 00:25:24;;;;;;;1.43;1.20;;;;;;;10.40;100.00;99992.00;5013833;28;20298;-72
2023/01/13 00:27:50;;;;;;;1.10;1.00;;;;;;;10.38;100.00;99980.06;5025756;28;20412;-72
2023/01/13 00:30:16;;;;;;;1.40;1.00;;;;;;;10.37;100.00;99978.34;5021599;28;20262;-72
2023/01/13 00:32:41;;;;;;;1.40;1.30;;;;;;;10.37;100.00;99980.91;5014985;28;20289;-71
2023/01/13 00:35:07;;;;;;;1.73;1.53;;;;;;;10.38;100.00;99986.03;5032264;28;20562;-72
2023/01/13 00:37:36;;;;;;;3.33;1.27;;;;;;;10.39;100.00;99984.31;5030122;28;20190;-71
2023/01/13 00:40:02;;;;;;;1.53;1.43;;;;;;;10.38;100.00;99997.97;5027267;28;20224;-71
2023/01/13 00:45:11;;;;;;;2.70;1.73;;;;;;;10.38;100.00;99983.47;5027571;28;20652;-72
2023/01/13 00:47:37;;;;;;;1.90;1.53;;;;;;;10.38;100.00;99983.47;5030553;28;20233;-72
2023/01/13 00:50:02;;;;;;;2.90;1.70;;;;;;;10.40;100.00;99986.91;5025256;28;20715;-72
2023/01/13 00:52:28;;;;;;;2.07;1.87;;;;;;;10.41;100.00;99988.59;5024580;28;20604;-71
2023/01/13 00:54:53;;;;;;;2.87;1.80;;;;;;;10.38;100.00;99987.72;5007076;28;20213;-71
2023/01/13 00:57:18;;;;;;;1.67;1.57;;;;;;;10.38;100.00;100003.09;5026572;28;20197;-72
2023/01/13 00:59:44;;;;;;;2.57;1.60;;;;;;;10.37;100.00;99994.53;5031494;28;20214;-72
2023/01/13 01:02:09;;;;;;;1.77;1.47;;;;;;;10.37;100.00;99998.81;5024722;28;20445;-72
2023/01/13 01:04:35;;;;;;;1.40;1.30;;;;;;;10.35;100.00;100011.59;5024707;28;20200;-71
2023/01/13 01:07:00;;;;;;;3.53;1.43;;;;;;;10.27;100.00;100017.53;5028860;28;20193;-72
2023/01/13 01:09:31;;;;;;;4.43;1.43;;;;;;;10.06;100.00;100035.25;5024086;28;20626;-71
2023/01/13 01:11:58;;;;;;;3.77;1.27;;;;;;;10.01;100.00;100035.19;5031316;28;20275;-71
2023/01/13 01:14:24;;;;;;;3.73;1.20;;;;;;;10.02;100.00;100030.91;5030272;28;20837;-72
2023/01/13 01:16:49;;;;;;;1.93;1.10;;;;;;;9.94;100.00;100027.44;5010165;28;20190;-72
2023/01/13 01:19:15;;;;;;;5.43;1.40;;;;;;;9.92;100.00;100011.22;5024205;28;20221;-71
2023/01/13 01:21:40;;;;;;;5.80;1.40;;;;;;;9.91;100.00;100009.53;5027314;28;20333;-71
2023/01/13 01:24:06;;;;;;;6.07;1.63;;;;;;;9.86;100.00;100009.47;5028597;28;20285;-71
2023/01/13 01:26:32;;;;;;;4.27;1.10;;;;;;;9.80;100.00;100017.09;5029432;28;20655;-71
2023/01/13 01:28:58;;;;;;;5.93;1.63;;;;;;;9.71;100.00;100017.00;5024992;28;20244;-72
2023/01/13 01:31:26;;;;;;;6.03;0.90;;;;;;;9.68;100.00;100023.81;5028345;28;20622;-71
2023/01/13 01:33:53;;;;;;;3.97;1.00;;;;;;;9.60;100.00;100016.06;5028220;28;20198;-72
2023/01/13 01:36:21;;;;;;;4.47;1.23;;;;;;;9.57;100.00;100018.59;5025567;28;20197;-72
2023/01/13 01:38:48;;;;;;;4.50;1.20;;;;;;;9.54;100.00;100027.94;5017556;28;20230;-71
2023/01/13 01:41:17;;;;;;;3.67;1.10;;;;;;;9.50;100.00;100019.34;5007131;28;20358;-71
2023/01/13 01:44:24;;;;;;;6.97;1.40;;;;;;;9.44;100.00;100029.50;5022255;28;20685;-72
2023/01/13 01:46:51;;;;;;;6.10;1.43;;;;;;;9.43;100.00;100035.47;5012458;28;20190;-71
2023/01/13 01:49:16;;;;;;;4.67;1.23;;;;;;;9.41;100.00;100037.16;5029663;28;20558;-71
2023/01/13 01:51:50;;;;;;;5.90;1.37;;;;;;;9.37;100.00;100032.84;5022889;28;20218;-72
2023/01/13 01:54:24;;;;;;;5.17;1.30;;;;;;;9.36;100.00;100032.84;5028172;28;20271;-71
2023/01/13 01:56:51;;;;;;;4.63;1.20;;;;;;;9.36;100.00;100036.22;5031609;28;20189;-71
2023/01/13 01:59:17;;;;;;;2.63;1.00;;;;;;;9.36;100.00;100037.94;5039129;28;20236;-71
2023/01/13 02:01:43;;;;;;;2.60;0.90;;;;;;;9.34;100.00;100027.69;5015884;28;20281;-71
2023/01/13 02:04:14;;;;;;;1.57;0.83;;;;;;;9.34;100.00;100029.38;5030868;28;20240;-71
2023/01/13 02:06:41;;;;;;;5.13;1.00;;;;;;;9.34;100.00;100027.69;5028115;28;20198;-71
2023/01/13 02:09:07;;;;;;;3.47;0.90;;;;;;;9.38;100.00;100034.56;5012224;28;20277;-72
2023/01/13 02:14:22;;;;;;;6.93;1.47;;;;;;;9.37;100.00;100026.88;5020437;28;20682;-72
2023/01/13 02:17:15;;;;;;;3.57;0.87;;;;;;;9.37;100.00;100030.31;5027958;28;20195;-72
2023/01/13 02:20:27;;;;;;;6.27;1.30;;;;;;;9.36;100.00;100025.16;5020911;28;20214;-72
2023/01/13 02:23:05;;;;;;;2.47;0.93;;;;;;;9.38;100.00;100032.00;5022789;28;20592;-71
2023/01/13 02:25:45;;;;;;;3.83;1.10;;;;;;;9.35;100.00;100026.03;5020877;28;20198;-71
2023/01/13 02:31:40;;;;;;;2.53;1.00;;;;;;;9.35;100.00;100037.06;5023455;28;20195;-72
2023/01/13 02:31:43;;;;;;;5.53;1.37;;;;;;;9.35;100.00;100031.97;5031881;28;20213;-72
2023/01/13 02:34:18;;;;;;;4.27;1.30;;;;;;;9.27;100.00;100036.13;5010211;28;20203;-72
2023/01/13 02:37:06;;;;;;;4.93;1.20;;;;;;;9.22;100.00;100030.09;5027887;28;20198;-72
2023/01/13 02:39:53;;;;;;;3.13;1.10;;;;;;;9.18;100.00;100033.50;5027309;28;20241;-72
2023/01/13 02:45:52;;;;;;;5.27;1.60;;;;;;;9.12;100.00;100040.22;5019826;28;20228;-72
2023/01/13 02:48:21;;;;;;;9.10;1.50;;;;;;;9.06;100.00;100041.00;5031580;28;20255;-71
2023/01/13 02:50:54;;;;;;;6.23;1.60;;;;;;;8.99;100.00;100046.00;5027674;28;20285;-72
2023/01/13 02:53:36;;;;;;;4.70;1.37;;;;;;;8.89;100.00;100044.19;5034959;28;20194;-72
2023/01/13 02:56:04;;;;;;;6.53;1.90;;;;;;;8.83;100.00;100039.84;5032626;28;20244;-70
2023/01/13 02:58:34;;;;;;;5.60;2.00;;;;;;;8.77;100.00;100042.34;5033188;28;20244;-71
2023/01/13 03:00:59;;;;;;;8.77;1.97;;;;;;;8.73;100.00;100047.34;5025015;28;20226;-71
2023/01/13 03:03:25;;;;;;;7.60;1.60;;;;;;;8.65;100.00;100042.16;5029310;28;20237;-73
2023/01/13 03:05:59;;;;;;;6.73;2.00;;;;;;;8.64;100.00;100043.00;5023968;28;20646;-73
2023/01/13 03:08:41;;;;;;;9.50;2.03;;;;;;;8.59;100.00;100036.09;5029609;28;20198;-73
2023/01/13 03:11:13;;;;;;;9.60;2.20;;;;;;;8.58;100.00;100040.38;5029609;28;20705;-73
2023/01/13 03:13:42;;;;;;;7.17;1.80;;;;;;;8.57;100.00;100051.38;5023295;28;20558;-73
2023/01/13 03:16:15;;;;;;;10.93;1.70;;;;;;;8.59;100.00;100052.28;5021058;28;20285;-72
2023/01/13 03:18:55;;;;;;;8.77;2.13;;;;;;;8.59;100.00;100053.97;5023020;28;20191;-73
2023/01/13 03:21:33;;;;;;;6.70;1.70;;;;;;;8.53;100.00;100056.44;5039160;28;20231;-73
2023/01/13 03:24:10;;;;;;;8.87;2.10;;;;;;;8.54;100.00;100070.91;5023612;28;20547;-72
2023/01/13 03:26:51;;;;;;;11.57;2.50;;;;;;;8.50;100.00;100076.78;5023457;28;20202;-72
2023/01/13 03:29:26;;;;;;;8.37;1.80;;;;;;;8.48;100.00;100081.03;5019715;28;20193;-72
2023/01/13 03:32:00;;;;;;;11.27;2.70;;;;;;;8.49;100.00;100080.19;5022569;28;20618;-72
2023/01/13 03:34:31;;;;;;;13.80;2.33;;;;;;;8.47;100.00;100076.75;5021155;28;20206;-72
2023/01/13 03:37:01;;;;;;;11.57;2.10;;;;;;;8.43;100.00;100078.38;5011591;28;20644;-73
2023/01/13 03:39:34;;;;;;;11.63;2.23;;;;;;;8.40;100.00;100088.56;5026880;28;20906;-73
2023/01/13 03:42:09;;;;;;;8.83;2.03;;;;;;;8.43;100.00;100087.75;5030171;28;20250;-72
2023/01/13 03:44:41;;;;;;;14.87;2.40;;;;;;;8.44;100.00;100094.56;5025992;28;20264;-72
2023/01/13 03:47:27;;;;;;;11.23;2.23;;;;;;;8.41;100.00;100086.84;5031739;28;20568;-72
2023/01/13 03:49:56;;;;;;;9.93;1.83;;;;;;;8.36;100.00;100088.47;5031491;28;20763;-73
2023/01/13 03:52:27;;;;;;;11.13;2.33;;;;;;;8.38;100.00;100092.75;5027745;28;20788;-72
2023/01/13 03:55:03;;;;;;;10.87;2.47;;;;;;;8.35;100.00;100090.19;5025903;28;20281;-73
2023/01/13 03:57:33;;;;;;;10.00;2.30;;;;;;;8.26;100.00;100100.25;5023817;28;20205;-72
2023/01/13 04:00:02;;;;;;;14.27;3.10;;;;;;;8.19;100.00;100093.28;5022723;28;20223;-73
2023/01/13 04:02:50;;;;;;;15.40;2.60;;;;;;;8.18;100.00;100091.56;5022947;28;20230;-73
2023/01/13 04:05:17;;;;;;;9.57;2.93;;;;;;;8.19;100.00;100090.72;5031850;28;20194;-72
2023/01/13 04:07:48;;;;;;;12.13;2.53;;;;;;;8.17;100.00;100089.84;5008958;28;20206;-72
2023/01/13 04:10:20;;;;;;;12.83;3.37;;;;;;;8.11;100.00;100089.72;5026703;28;20214;-72
2023/01/13 04:13:01;;;;;;;11.07;2.37;;;;;;;8.08;100.00;100079.50;5030765;28;20209;-72
2023/01/13 04:15:33;;;;;;;14.87;2.93;;;;;;;8.07;100.00;100071.81;5035013;28;20692;-72
2023/01/13 04:18:17;;;;;;;16.07;2.80;;;;;;;8.00;100.00;100081.06;5024855;28;20248;-72
2023/01/13 04:20:45;;;;;;;13.97;2.53;;;;;;;7.99;100.00;100074.25;5030114;28;20305;-73
2023/01/13 04:23:12;;;;;;;13.13;2.60;;;;;;;8.01;100.00;100071.72;5030650;28;20236;-73
2023/01/13 04:25:39;;;;;;;13.73;2.73;;;;;;;7.99;100.00;100073.38;5029887;28;20210;-72
2023/01/13 04:28:05;;;;;;;15.67;3.03;;;;;;;7.91;100.00;100070.69;5014518;28;20586;-73
2023/01/13 04:30:31;;;;;;;14.90;2.60;;;;;;;7.86;100.00;100074.00;5030615;28;20198;-72
2023/01/13 04:32:56;;;;;;;15.00;2.80;;;;;;;7.82;100.00;100070.53;5021320;28;20221;-72
2023/01/13 04:35:22;;;;;;;19.70;2.93;;;;;;;7.79;100.00;100074.72;5030279;28;20190;-72
2023/01/13 04:37:47;;;;;;;13.63;2.77;;;;;;;7.76;100.00;100087.41;5030644;28;20727;-72
2023/01/13 04:40:13;;;;;;;13.87;2.70;;;;;;;7.75;100.00;100089.13;5030946;28;20256;-72
2023/01/13 04:42:38;;;;;;;15.03;3.90;;;;;;;7.69;100.00;100081.34;5023138;28;20276;-73
2023/01/13 04:45:04;;;;;;;15.00;2.87;;;;;;;7.75;100.00;100085.69;5017618;28;20554;-73
2023/01/13 04:47:29;;;;;;;15.70;3.33;;;;;;;7.77;100.00;100094.22;5026799;28;20190;-73
2023/01/13 04:49:54;;;;;;;15.53;2.90;;;;;;;7.73;100.00;100092.44;5026047;28;20194;-73
2023/01/13 04:52:20;;;;;;;11.17;2.90;;;;;;;7.69;100.00;100099.16;5026268;28;20214;-73
2023/01/13 04:54:45;;;;;;;12.03;2.97;;;;;;;7.65;100.00;100089.75;5004589;28;20277;-73
2023/01/13 04:57:11;;;;;;;16.90;2.93;;;;;;;7.63;100.00;100096.50;5033994;28;20348;-73
2023/01/13 04:59:36;;;;;;;19.97;3.50;;;;;;;7.63;100.00;100088.88;5023709;28;20717;-72
2023/01/13 05:02:02;;;;;;;24.60;4.13;;;;;;;7.61;100.00;100094.78;5019217;28;20250;-73
2023/01/13 05:04:27;;;;;;;12.37;3.57;;;;;;;7.59;100.00;100086.22;5029578;28;20191;-73
2023/01/13 05:06:52;;;;;;;13.33;4.37;;;;;;;7.68;100.00;100100.00;5029116;28;20198;-73
2023/01/13 05:09:18;;;;;;;15.60;3.27;;;;;;;7.69;100.00;100090.69;5028753;28;20354;-73
2023/01/13 05:17:19;;;;;;;20.67;3.67;;;;;;;7.69;100.00;100083.88;5026672;28;20207;-73
2023/01/13 05:19:44;;;;;;;16.13;2.77;;;;;;;7.66;100.00;100078.75;5023594;28;20224;-73
2023/01/13 05:27:37;;;;;;;22.90;4.13;;;;;;;7.60;100.00;100080.31;5025120;28;20201;-72
2023/01/13 05:30:04;;;;;;;21.20;3.60;;;;;;;7.63;100.00;100077.81;5026566;28;20191;-72
2023/01/13 05:32:29;;;;;;;14.57;3.57;;;;;;;7.62;100.00;100076.09;5027426;28;20223;-72
2023/01/13 05:34:55;;;;;;;16.13;3.50;;;;;;;7.60;100.00;100065.03;5010743;28;20205;-73
2023/01/13 05:37:21;;;;;;;18.87;3.70;;;;;;;7.59;100.00;100061.63;5025002;28;20214;-72
2023/01/13 05:45:15;;;;;;;19.47;3.33;;;;;;;7.54;100.00;100072.53;5030829;28;20604;-72
2023/01/13 05:47:41;;;;;;;18.70;3.50;;;;;;;7.46;100.00;100079.22;5033195;28;20193;-72
2023/01/13 05:50:08;;;;;;;16.00;4.53;;;;;;;7.41;100.00;100070.63;5029965;28;20202;-73
2023/01/13 05:52:33;;;;;;;16.00;3.57;;;;;;;7.42;100.00;100082.53;5003590;28;20238;-73
2023/01/13 05:54:59;;;;;;;20.07;4.20;;;;;;;7.37;100.00;100077.31;5032861;28;20226;-72
2023/01/13 05:57:24;;;;;;;16.73;3.77;;;;;;;7.35;100.00;100079.00;5035565;28;20195;-72
2023/01/13 05:59:50;;;;;;;17.03;3.60;;;;;;;7.29;100.00;100078.88;5032831;28;20206;-72
2023/01/13 06:02:15;;;;;;;16.37;3.60;;;;;;;7.28;100.00;100082.22;5028690;28;20351;-72
2023/01/13 06:04:40;;;;;;;19.60;3.87;;;;;;;7.27;100.00;100080.53;5035145;28;20190;-73
2023/01/13 06:07:06;;;;;;;21.17;3.43;;;;;;;7.34;100.00;100077.28;5030156;28;20186;-72
2023/01/13 06:09:31;;;;;;;13.63;2.90;;;;;;;7.39;100.00;100083.31;5030639;28;20270;-73
2023/01/13 06:11:56;;;;;;;21.20;3.83;;;;;;;7.38;100.00;100083.28;5033992;28;20213;-72
2023/01/13 06:14:22;;;;;;;22.07;4.80;;;;;;;7.35;100.00;100083.22;5028938;28;20189;-73
2023/01/13 06:16:47;;;;;;;17.17;3.43;;;;;;;7.39;100.00;100080.78;5031441;28;21080;-72
2023/01/13 06:19:13;;;;;;;16.63;3.20;;;;;;;7.42;100.00;100078.25;5032523;28;20205;-72
2023/01/13 06:21:39;;;;;;;14.10;3.13;;;;;;;7.44;100.00;100081.72;5028744;28;20577;-72
2023/01/13 06:24:05;;;;;;;13.33;3.43;;;;;;;7.47;100.00;100074.13;5034626;28;20186;-74
2023/01/13 06:26:36;;;;;;;15.47;2.93;;;;;;;7.46;100.00;100080.03;5033503;28;20909;-72
2023/01/13 06:29:02;;;;;;;15.10;3.23;;;;;;;7.45;100.00;100069.81;5014328;28;20195;-72
2023/01/13 06:31:29;;;;;;;13.03;3.40;;;;;;;7.37;100.00;100064.59;5035720;28;20214;-72
2023/01/13 06:34:04;;;;;;;14.90;3.57;;;;;;;7.31;100.00;100072.13;5017731;28;20216;-72
2023/01/13 06:36:34;;;;;;;19.23;3.23;;;;;;;7.27;100.00;100069.50;5032474;28;20190;-72
2023/01/13 06:39:01;;;;;;;13.83;4.03;;;;;;;7.22;100.00;100066.84;5031280;28;20217;-72
2023/01/13 06:44:14;;;;;;;22.27;3.70;;;;;;;7.17;100.00;100067.56;5023163;28;20221;-72
2023/01/13 06:46:39;;;;;;;18.30;3.63;;;;;;;7.17;100.00;100072.66;5033038;28;20214;-72
2023/01/13 06:49:05;;;;;;;21.37;4.10;;;;;;;7.14;100.00;100070.06;5033568;28;20830;-72
2023/01/13 06:51:31;;;;;;;12.90;3.07;;;;;;;7.18;100.00;100082.03;5036426;28;20232;-72
2023/01/13 06:53:56;;;;;;;14.63;3.77;;;;;;;7.21;100.00;100080.41;5027251;28;20191;-72
2023/01/13 06:56:22;;;;;;;15.83;3.53;;;;;;;7.22;100.00;100071.94;5033958;28;20183;-72
2023/01/13 06:58:47;;;;;;;20.97;4.10;;;;;;;7.22;100.00;100074.47;5033669;28;20178;-73
2023/01/13 07:01:13;;;;;;;15.73;4.00;;;;;;;7.24;100.00;100066.88;5028844;28;20725;-72
2023/01/13 07:03:39;;;;;;;25.73;3.90;;;;;;;7.23;100.00;100075.34;5028289;28;20187;-72
2023/01/13 07:06:05;;;;;;;20.37;3.87;;;;;;;7.27;100.00;100070.34;5029692;28;20185;-72
2023/01/13 07:08:30;;;;;;;16.33;3.93;;;;;;;7.26;100.00;100083.91;5031152;28;20598;-72
2023/01/13 07:10:56;;;;;;;18.33;4.43;;;;;;;7.31;100.00;100076.34;5030592;28;20297;-72
2023/01/13 07:16:07;;;;;;;17.53;3.77;;;;;;;7.27;100.00;100074.59;5033341;28;20186;-73
2023/01/13 07:18:34;;;;;;;17.53;3.37;;;;;;;7.24;100.00;100084.69;5034807;28;20220;-72
2023/01/13 07:21:05;;;;;;;14.30;3.80;;;;;;;7.24;100.00;100088.09;5030303;28;20596;-73
2023/01/13 07:23:35;;;;;;;15.90;3.43;;;;;;;7.16;100.00;100086.22;5032461;28;20190;-72
2023/01/13 07:26:01;;;;;;;14.77;3.90;;;;;;;7.17;100.00;100088.81;5015794;28;20245;-72
2023/01/13 07:28:28;;;;;;;15.97;3.60;;;;;;;7.22;100.00;100078.69;5032454;28;20722;-72
2023/01/13 07:30:53;;;;;;;21.63;4.40;;;;;;;7.20;100.00;100080.38;5029321;28;20206;-72
2023/01/13 07:33:19;;;;;;;18.90;4.13;;;;;;;7.18;100.00;100082.88;5000870;28;20545;-72
2023/01/13 07:35:46;;;;;;;16.67;4.33;;;;;;;7.16;100.00;100081.13;5026458;28;20651;-72
2023/01/13 07:38:12;;;;;;;17.87;3.40;;;;;;;7.16;100.00;100086.22;5033283;28;20192;-71
2023/01/13 07:40:38;;;;;;;17.37;3.63;;;;;;;7.25;100.00;100086.41;5030607;28;20197;-73
2023/01/13 07:45:48;;;;;;;19.97;3.77;;;;;;;7.19;100.00;100093.94;5024897;28;20565;-73
2023/01/13 07:48:14;;;;;;;17.77;4.93;;;;;;;7.23;100.00;100088.91;5030886;28;20289;-73
2023/01/13 07:50:39;;;;;;;17.70;3.67;;;;;;;7.26;100.00;100089.00;5030326;28;20194;-72
2023/01/13 07:53:05;;;;;;;22.03;4.70;;;;;;;7.26;100.00;100093.22;5029977;28;20206;-73
2023/01/13 07:55:30;;;;;;;19.50;4.10;;;;;;;7.27;100.00;100085.63;5030639;28;20218;-72
2023/01/13 07:57:56;;;;;;;23.67;4.50;;;;;;;7.29;100.00;100075.47;5037016;28;20303;-73
2023/01/13 08:00:21;;;;;;;28.80;4.60;;;;;;;7.33;100.00;100080.63;5015836;28;20285;-72
2023/01/13 08:02:47;;;;;;;21.10;4.47;;;;;;;7.33;100.00;100074.69;5032283;28;20232;-72
2023/01/13 08:05:13;;;;;;;13.97;3.63;;;;;;;7.39;100.00;100075.69;5031307;28;20648;-73
2023/01/13 08:07:39;;;;;;;20.93;4.07;;;;;;;7.44;100.00;100081.72;5031569;28;20293;-72
2023/01/13 08:10:05;;;;;;;16.77;4.77;;;;;;;7.52;100.00;100081.84;5031063;28;20747;-73
2023/01/13 08:15:15;;;;;;;22.03;4.53;;;;;;;7.67;100.00;100080.47;5031354;28;20194;-74
2023/01/13 08:17:41;;;;;;;21.20;4.17;;;;;;;7.78;100.00;100080.66;5030756;28;20186;-73
2023/01/13 08:20:08;;;;;;;18.00;3.90;;;;;;;7.76;100.00;100080.63;5028769;28;20217;-73
2023/01/13 08:22:34;;;;;;;21.87;3.87;;;;;;;7.75;100.00;100081.47;5030579;28;20217;-73
2023/01/13 08:24:59;;;;;;;19.40;4.37;;;;;;;7.76;100.00;100078.09;5032916;28;20202;-73
2023/01/13 08:27:25;;;;;;;19.97;4.00;;;;;;;7.78;100.00;100075.56;5025498;28;20206;-73
2023/01/13 08:29:50;;;;;;;16.83;3.70;;;;;;;7.70;100.00;100080.50;5030026;28;20770;-73
2023/01/13 08:32:16;;;;;;;17.80;3.40;;;;;;;7.75;100.00;100085.69;5031248;28;20304;-72
2023/01/13 08:34:41;;;;;;;20.17;3.77;;;;;;;7.84;100.00;100081.59;5029829;28;20268;-73
2023/01/13 08:37:07;;;;;;;18.50;4.10;;;;;;;7.96;100.00;100079.28;5029458;28;20217;-73
2023/01/13 08:39:32;;;;;;;15.00;4.03;;;;;;;7.96;100.00;100075.84;5022210;28;20218;-73
2023/01/13 08:41:58;;;;;;;16.17;4.33;;;;;;;7.97;100.00;100075.88;5030024;28;20573;-73
2023/01/13 08:44:29;;;;;;;20.13;3.70;;;;;;;7.97;100.00;100065.69;5032204;28;20610;-73
2023/01/13 08:46:55;;;;;;;17.30;3.67;;;;;;;8.03;100.00;100064.94;5012810;28;20194;-73
2023/01/13 08:49:21;;;;;;;18.43;3.60;;;;;;;8.08;100.00;100068.44;5025590;28;20183;-73
2023/01/13 08:51:48;;;;;;;22.90;3.87;;;;;;;8.12;100.00;100073.63;5028921;28;20217;-73
2023/01/13 08:54:14;;;;;;;25.33;4.07;;;;;;;8.23;100.00;100074.69;5023402;28;20193;-72
2023/01/13 08:56:41;;;;;;;14.97;3.37;;;;;;;8.34;99.95;100067.19;5030412;28;20190;-72
2023/01/13 08:59:12;;;;;;;17.27;3.73;;;;;;;8.50;100.00;100081.88;5014169;28;20230;-73
2023/01/13 09:01:38;;;;;;;22.50;4.43;;;;;;;8.57;99.58;100071.78;5026227;28;20364;-72
2023/01/13 09:04:05;;;;;;;18.37;3.40;;;;;;;8.52;97.96;100086.19;5029219;28;20269;-72
2023/01/13 09:06:30;;;;;;;19.90;4.00;;;;;;;8.53;98.22;100081.94;5030963;28;20334;-71
2023/01/13 09:08:57;;;;;;;12.63;3.40;;;;;;;8.54;98.40;100074.31;5028000;28;20657;-73
2023/01/13 09:14:21;;;;;;;19.77;4.20;;;;;;;8.70;96.71;100085.63;5030448;28;20190;-73
2023/01/13 09:16:47;;;;;;;12.63;3.10;;;;;;;8.70;96.22;100081.34;5028344;28;20651;-73
2023/01/13 09:19:12;;;;;;;19.07;3.37;;;;;;;8.74;95.90;100075.47;5028699;28;20220;-73
2023/01/13 09:21:38;;;;;;;13.30;3.30;;;;;;;8.82;95.29;100081.53;5027234;28;20285;-73
2023/01/13 09:24:03;;;;;;;15.80;3.37;;;;;;;9.02;94.40;100084.34;5028057;28;20235;-73
2023/01/13 09:26:29;;;;;;;11.23;2.70;;;;;;;9.05;91.38;100082.69;5026868;28;20234;-74
2023/01/13 09:28:54;;;;;;;13.93;2.90;;;;;;;9.23;89.83;100082.06;5024478;28;20187;-73
2023/01/13 09:31:20;;;;;;;13.53;3.73;;;;;;;9.17;90.20;100082.84;5031368;28;20206;-73
2023/01/13 09:36:29;;;;;;;15.13;3.03;;;;;;;9.14;89.11;100075.16;5024117;28;20206;-72
2023/01/13 09:38:55;;;;;;;15.93;3.63;;;;;;;9.31;88.33;100071.09;5027502;28;20209;-73
2023/01/13 09:44:15;;;;;;;20.13;3.00;;;;;;;10.06;85.06;100078.72;5031790;28;20186;-73
2023/01/13 09:46:56;;;;;;;11.83;2.70;;;;;;;9.97;82.74;100083.72;5029756;28;20187;-73
2023/01/13 09:49:28;;;;;;;12.33;2.47;;;;;;;9.81;82.51;100080.16;5028820;28;20554;-73
2023/01/13 09:52:01;;;;;;;12.93;2.37;;;;;;;9.54;84.54;100077.31;5029439;28;20225;-73
2023/01/13 09:54:27;;;;;;;12.50;2.13;;;;;;;9.42;86.21;100066.97;5026213;28;20244;-72
2023/01/13 09:56:52;;;;;;;12.83;2.33;;;;;;;9.51;84.57;100067.09;5031051;28;20236;-73
2023/01/13 09:59:18;;;;;;;9.10;2.03;;;;;;;9.83;83.49;100069.97;5030132;28;20218;-74
2023/01/13 10:02:03;;;;;;;13.17;2.77;;;;;;;9.91;82.70;100058.09;5029769;28;20251;-71
2023/01/13 10:04:29;;;;;;;10.20;2.73;;;;;;;10.13;79.65;100050.66;5024388;28;20197;-73
2023/01/13 10:07:00;;;;;;;11.27;2.67;;;;;;;10.26;79.71;100069.50;5024931;28;20553;-73
2023/01/13 10:09:37;;;;;;;9.27;2.30;;;;;;;10.46;77.38;100042.38;5028870;28;20269;-74
2023/01/13 10:14:57;;;;;;;10.87;2.53;;;;;;;10.38;78.58;100059.38;5010312;28;20283;-73
2023/01/13 10:17:34;;;;;;;13.67;2.33;;;;;;;10.94;76.13;100064.03;5011074;28;20218;-72
2023/01/13 10:20:07;;;;;;;8.67;2.30;;;;;;;11.42;72.34;100058.22;5013122;28;20254;-73
2023/01/13 10:22:47;;;;;;;11.33;2.43;;;;;;;9.94;78.47;100076.03;5030042;28;20211;-73
2023/01/13 10:25:40;;;;;;;9.03;2.00;;;;;;;9.91;79.81;100086.25;5028844;28;20674;-72
2023/01/13 10:28:11;;;;;;;10.53;2.47;;;;;;;9.67;81.12;100071.50;5017700;28;20301;-72
2023/01/13 10:30:41;;;;;;;9.03;2.30;;;;;;;9.52;80.82;100047.47;5030952;28;20210;-71
2023/01/13 10:33:17;;;;;;;7.27;2.37;;;;;;;9.57;81.58;100072.25;5030305;28;20597;-72
2023/01/13 10:36:00;;;;;;;13.40;2.60;;;;;;;9.56;82.82;100060.31;5028890;28;20213;-71
2023/01/13 10:38:35;;;;;;;8.30;2.23;;;;;;;9.43;81.94;100068.69;5025059;28;20234;-71
2023/01/13 10:41:02;;;;;;;10.33;2.23;;;;;;;9.37;81.46;100072.88;5018429;28;20299;-71
2023/01/13 10:43:29;;;;;;;11.37;2.13;;;;;;;9.37;82.92;100065.19;5028885;28;20648;-74
2023/01/13 10:46:24;;;;;;;12.60;2.10;;;;;;;9.30;83.47;100068.53;5028134;28;20227;-73
2023/01/13 10:48:54;;;;;;;9.23;1.90;;;;;;;9.26;83.51;100070.19;5018766;28;20753;-73
2023/01/13 10:51:29;;;;;;;9.60;2.57;;;;;;;9.32;82.90;100074.50;5011753;28;20224;-73
2023/01/13 10:53:57;;;;;;;10.50;2.20;;;;;;;9.43;82.22;100070.38;5029845;28;20569;-73
2023/01/13 10:56:28;;;;;;;8.20;2.40;;;;;;;10.23;79.75;100060.13;5027533;28;20311;-72
2023/01/13 10:59:25;;;;;;;9.97;2.03;;;;;;;9.81;79.81;100067.38;5032234;28;20201;-73
2023/01/13 11:02:15;;;;;;;10.80;2.23;;;;;;;9.49;80.55;100085.78;5031592;28;20210;-73
2023/01/13 11:04:52;;;;;;;15.67;2.47;;;;;;;9.36;82.13;100078.81;5026492;28;20183;-73
2023/01/13 11:07:44;;;;;;;11.63;2.43;;;;;;;9.27;83.33;100073.59;5028801;28;20196;-73
2023/01/13 11:10:15;;;;;;;12.07;2.77;;;;;;;9.20;83.97;100072.66;5033112;28;20554;-72
2023/01/13 11:13:10;;;;;;;11.00;2.53;;;;;;;9.19;84.64;100076.06;5030570;28;20714;-72
2023/01/13 11:15:45;;;;;;;10.53;2.60;;;;;;;9.19;84.89;100070.97;5019788;28;20656;-72
2023/01/13 11:18:42;;;;;;;12.03;2.20;;;;;;;9.26;85.15;100069.34;5030328;28;20186;-73
2023/01/13 11:21:36;;;;;;;11.80;2.40;;;;;;;9.18;84.43;100070.94;5014164;28;20313;-73
2023/01/13 11:24:10;;;;;;;10.37;2.60;;;;;;;9.18;84.98;100061.59;5013212;28;20821;-73
2023/01/13 11:26:42;;;;;;;14.83;3.10;;;;;;;9.15;85.10;100068.34;5032246;28;20190;-73
2023/01/13 11:29:17;;;;;;;8.10;2.13;;;;;;;9.10;85.97;100075.94;5029711;28;20194;-72
2023/01/13 11:31:48;;;;;;;15.17;2.90;;;;;;;9.09;86.10;100068.25;5028257;28;20217;-72
2023/01/13 11:34:34;;;;;;;7.50;2.37;;;;;;;9.10;87.12;100073.41;5012434;28;20187;-71
2023/01/13 11:37:02;;;;;;;10.77;2.70;;;;;;;9.18;85.01;100066.69;5027524;28;20186;-72
2023/01/13 11:40:02;;;;;;;10.97;2.60;;;;;;;9.18;84.79;100071.81;5020707;28;20268;-71
2023/01/13 11:42:48;;;;;;;8.83;2.30;;;;;;;9.14;86.31;100079.41;5028356;28;20207;-71
2023/01/13 11:45:36;;;;;;;11.60;2.83;;;;;;;9.06;88.29;100080.97;5029662;28;20838;-71
2023/01/13 11:48:02;;;;;;;9.43;2.37;;;;;;;8.97;89.77;100084.28;5028500;28;20183;-72
2023/01/13 11:50:50;;;;;;;11.23;2.70;;;;;;;8.83;92.48;100095.13;5029593;28;20198;-71
2023/01/13 11:53:36;;;;;;;19.00;5.87;;;;;;;8.68;96.47;100103.44;5015140;28;20675;-72
2023/01/13 11:56:23;;;;;;;16.13;4.03;;;;;;;8.64;99.62;100099.13;5029214;28;20186;-71
2023/01/13 11:59:11;;;;;;;9.70;2.50;;;;;;;8.64;99.04;100085.50;5024799;28;20194;-72
2023/01/13 12:01:36;;;;;;;15.47;3.00;;;;;;;8.61;98.79;100088.03;5025512;28;20718;-71
2023/01/13 12:04:20;;;;;;;12.93;2.87;;;;;;;8.90;97.50;100091.84;5032999;28;20325;-74
2023/01/13 12:06:56;;;;;;;13.20;2.50;;;;;;;9.04;96.30;100085.22;5028430;28;20201;-74
2023/01/13 12:10:01;;;;;;;14.87;2.80;;;;;;;9.06;97.19;100086.09;5027523;28;20185;-73
2023/01/13 12:12:52;;;;;;;10.13;2.73;;;;;;;8.97;97.26;100081.72;5026267;28;20210;-70
2023/01/13 12:15:46;;;;;;;7.87;2.10;;;;;;;8.62;97.67;100095.69;5029738;28;20240;-71
2023/01/13 12:18:14;;;;;;;9.73;2.60;;;;;;;8.56;98.15;100095.59;5026814;28;20548;-73
2023/01/13 12:20:53;;;;;;;9.17;2.60;;;;;;;8.59;99.15;100093.09;5016380;28;20226;-73
2023/01/13 12:23:33;;;;;;;8.37;1.93;;;;;;;8.46;99.33;100095.44;5023355;28;20197;-73
2023/01/13 12:26:06;;;;;;;11.97;2.70;;;;;;;8.46;99.11;100108.19;5026741;28;20277;-73